createdAt,value
2018-08-22T16:33:11.000Z,14.7
2018-08-22T16:34:03.000Z,13.4
2018-08-22T16:34:31.000Z,13.2
2018-08-22T16:35:31.000Z,12.7
2018-08-22T16:36:31.000Z,11.4
2018-08-22T16:37:30.000Z,12.1
2018-08-22T16:38:31.000Z,12.8
2018-08-22T16:41:31.000Z,11.4
2018-08-22T16:42:29.000Z,11.1
2018-08-22T16:43:15.000Z,26.2
2018-08-22T16:44:14.000Z,26.2
2018-08-22T16:45:15.000Z,26.2
2018-08-22T16:45:30.000Z,9.7
2018-08-22T16:46:30.000Z,11.0
2018-08-22T16:47:31.000Z,11.0
2018-08-22T16:48:31.000Z,10.9
2018-08-22T16:49:31.000Z,11.1
2018-08-22T16:52:45.000Z,12.5
2018-08-22T16:52:59.000Z,11.7
2018-08-22T16:56:11.000Z,13.1
2018-08-22T16:56:43.000Z,11.9
2018-08-22T16:57:36.000Z,12.2
2018-08-22T16:58:34.000Z,11.7
2018-08-22T16:59:34.000Z,11.7
2018-08-22T17:00:34.000Z,11.9
2018-08-22T17:08:21.000Z,26.2
2018-08-22T17:09:21.000Z,26.2
2018-08-22T17:09:36.000Z,10.5
2018-08-22T17:10:35.000Z,11.1
2018-08-22T17:11:35.000Z,10.2
2018-08-22T17:15:56.000Z,12.9
2018-08-22T17:16:59.000Z,0.0
2018-08-22T17:17:13.000Z,26.2
2018-08-22T17:18:14.000Z,26.2
2018-08-22T17:18:37.000Z,9.3
2018-08-22T17:19:29.000Z,13.4
2018-08-22T17:20:30.000Z,13.3
2018-08-22T17:21:31.000Z,12.4
2018-08-22T17:22:31.000Z,12.2
2018-08-22T17:23:30.000Z,11.7
2018-08-22T17:24:30.000Z,11.3
2018-08-22T17:25:30.000Z,12.3
2018-08-22T17:26:30.000Z,12.2
2018-08-22T17:27:30.000Z,11.5
2018-08-22T17:28:30.000Z,11.2
2018-08-22T17:29:30.000Z,11.9
2018-08-22T17:30:30.000Z,10.4
2018-08-22T17:31:30.000Z,11.2
2018-08-22T17:32:30.000Z,9.4
2018-08-22T17:33:30.000Z,9.6
2018-08-22T17:34:30.000Z,10.5
2018-08-22T17:35:30.000Z,9.8
2018-08-22T17:36:30.000Z,9.4
2018-08-22T17:37:30.000Z,8.7
2018-08-22T17:38:30.000Z,9.2
2018-08-22T17:39:30.000Z,8.1
2018-08-22T17:40:30.000Z,9.8
2018-08-22T17:41:30.000Z,9.5
2018-08-22T17:42:30.000Z,9.2
2018-08-22T17:43:30.000Z,8.7
2018-08-22T17:44:30.000Z,9.2
2018-08-22T17:45:30.000Z,9.8
2018-08-22T17:46:30.000Z,10.7
2018-08-22T17:47:30.000Z,10.0
2018-08-22T17:48:30.000Z,11.1
2018-08-22T17:49:31.000Z,9.4
2018-08-22T17:50:30.000Z,9.8
2018-08-22T17:51:31.000Z,9.4
2018-08-22T17:52:30.000Z,10.2
2018-08-22T17:53:30.000Z,9.5
2018-08-22T17:54:30.000Z,7.9
2018-08-22T17:55:30.000Z,9.4
2018-08-22T17:56:30.000Z,8.8
2018-08-22T17:57:31.000Z,8.5
2018-08-22T17:58:30.000Z,8.9
2018-08-22T17:59:30.000Z,8.6
2018-08-22T18:03:31.000Z,8.3
2018-08-22T18:04:29.000Z,8.8
2018-08-22T18:05:30.000Z,8.7
2018-08-22T18:06:30.000Z,9.3
2018-08-22T18:07:30.000Z,9.6
2018-08-22T18:08:30.000Z,9.7
2018-08-22T18:09:30.000Z,9.5
2018-08-22T18:10:30.000Z,9.2
2018-08-22T18:12:30.000Z,8.7
2018-08-22T18:14:31.000Z,9.0
2018-08-22T18:15:30.000Z,10.5
2018-08-22T18:16:30.000Z,9.1
2018-08-22T18:17:30.000Z,10.5
2018-08-22T18:18:30.000Z,9.5
2018-08-22T18:19:30.000Z,8.8
2018-08-22T18:20:30.000Z,9.3
2018-08-22T18:21:29.000Z,10.0
2018-08-22T18:22:30.000Z,9.5
2018-08-22T18:23:31.000Z,9.7
2018-08-22T18:24:31.000Z,9.1
2018-08-22T18:25:30.000Z,9.5
2018-08-22T18:26:30.000Z,10.2
2018-08-22T18:27:30.000Z,9.2
2018-08-22T18:28:30.000Z,9.4
2018-08-22T18:29:32.000Z,10.2
2018-08-22T18:30:30.000Z,9.9
2018-08-22T18:31:29.000Z,9.9
2018-08-22T18:32:30.000Z,9.8
2018-08-22T18:33:29.000Z,9.3
2018-08-22T18:34:30.000Z,9.4
2018-08-22T18:35:31.000Z,9.6
2018-08-22T18:36:30.000Z,9.1
2018-08-22T18:37:30.000Z,9.8
2018-08-22T18:38:31.000Z,9.4
2018-08-22T18:39:30.000Z,9.2
2018-08-22T18:40:30.000Z,8.6
2018-08-22T18:41:30.000Z,9.1
2018-08-22T18:42:29.000Z,9.4
2018-08-22T18:45:30.000Z,8.4
2018-08-22T18:46:30.000Z,8.7
2018-08-22T18:47:30.000Z,9.1
2018-08-22T18:48:30.000Z,9.4
2018-08-22T18:49:32.000Z,9.4
2018-08-22T18:50:30.000Z,9.2
2018-08-22T18:51:30.000Z,8.9
2018-08-22T18:52:30.000Z,9.5
2018-08-22T18:53:30.000Z,9.5
2018-08-22T18:54:30.000Z,9.1
2018-08-22T18:55:30.000Z,9.8
2018-08-22T18:56:30.000Z,10.3
2018-08-22T18:57:30.000Z,9.0
2018-08-22T18:58:30.000Z,8.6
2018-08-22T18:59:30.000Z,9.4
2018-08-22T19:00:30.000Z,8.7
2018-08-22T19:01:30.000Z,9.2
2018-08-22T19:02:30.000Z,9.7
2018-08-22T19:03:30.000Z,9.8
2018-08-22T19:04:30.000Z,9.1
2018-08-22T19:05:30.000Z,9.3
2018-08-22T19:06:30.000Z,7.9
2018-08-22T19:07:30.000Z,9.6
2018-08-22T19:08:30.000Z,9.5
2018-08-22T19:09:30.000Z,9.2
2018-08-22T19:10:30.000Z,8.7
2018-08-22T19:11:30.000Z,9.3
2018-08-22T19:12:30.000Z,9.7
2018-08-22T19:13:30.000Z,9.8
2018-08-22T19:14:30.000Z,8.7
2018-08-22T19:15:30.000Z,9.5
2018-08-22T19:16:30.000Z,8.5
2018-08-22T19:17:30.000Z,8.5
2018-08-22T19:18:30.000Z,9.0
2018-08-22T19:19:30.000Z,9.3
2018-08-22T19:20:30.000Z,9.1
2018-08-22T19:21:30.000Z,8.7
2018-08-22T19:22:30.000Z,8.8
2018-08-22T19:23:30.000Z,9.4
2018-08-22T19:24:30.000Z,9.3
2018-08-22T19:25:30.000Z,9.3
2018-08-22T19:26:31.000Z,9.4
2018-08-22T19:27:31.000Z,9.1
2018-08-22T19:28:30.000Z,9.0
2018-08-22T19:29:30.000Z,8.3
2018-08-22T19:30:30.000Z,9.4
2018-08-22T19:31:29.000Z,9.1
2018-08-22T19:32:30.000Z,9.3
2018-08-22T19:33:30.000Z,8.8
2018-08-22T19:34:30.000Z,9.7
2018-08-22T19:35:30.000Z,9.3
2018-08-22T19:36:30.000Z,9.1
2018-08-22T19:37:30.000Z,9.2
2018-08-22T19:38:30.000Z,9.3
2018-08-22T19:39:31.000Z,8.5
2018-08-22T19:40:30.000Z,9.3
2018-08-22T19:41:31.000Z,8.3
2018-08-22T19:42:30.000Z,10.0
2018-08-22T19:43:30.000Z,9.5
2018-08-22T19:44:30.000Z,9.2
2018-08-22T19:45:30.000Z,9.6
2018-08-22T19:46:30.000Z,8.9
2018-08-22T19:47:30.000Z,9.3
2018-08-22T19:48:30.000Z,10.0
2018-08-22T19:49:30.000Z,10.2
2018-08-22T19:50:30.000Z,9.5
2018-08-22T19:51:30.000Z,9.7
2018-08-22T19:52:30.000Z,9.3
2018-08-22T19:53:30.000Z,9.6
2018-08-22T19:54:30.000Z,9.0
2018-08-22T19:55:30.000Z,8.7
2018-08-22T19:56:30.000Z,9.6
2018-08-22T19:57:30.000Z,9.0
2018-08-22T19:58:30.000Z,8.8
2018-08-22T19:59:30.000Z,9.6
2018-08-22T20:00:30.000Z,9.4
2018-08-22T20:01:30.000Z,9.4
2018-08-22T20:02:30.000Z,9.9
2018-08-22T20:03:30.000Z,9.7
2018-08-22T20:04:30.000Z,9.5
2018-08-22T20:05:30.000Z,9.3
2018-08-22T20:06:30.000Z,10.0
2018-08-22T20:07:30.000Z,9.1
2018-08-22T20:08:30.000Z,9.3
2018-08-22T20:09:31.000Z,9.1
2018-08-22T20:10:30.000Z,9.7
2018-08-22T20:11:30.000Z,10.8
2018-08-22T20:12:30.000Z,10.6
2018-08-22T20:13:31.000Z,10.5
2018-08-22T20:14:30.000Z,10.8
2018-08-22T20:15:31.000Z,11.3
2018-08-22T20:16:30.000Z,11.0
2018-08-22T20:17:30.000Z,10.0
2018-08-22T20:18:30.000Z,10.7
2018-08-22T20:19:30.000Z,10.8
2018-08-22T20:20:30.000Z,12.2
2018-08-22T20:21:30.000Z,12.0
2018-08-22T20:22:30.000Z,12.3
2018-08-22T20:23:31.000Z,11.6
2018-08-22T20:24:30.000Z,11.5
2018-08-22T20:25:30.000Z,12.1
2018-08-22T20:26:30.000Z,12.3
2018-08-22T20:27:29.000Z,11.0
2018-08-22T20:28:30.000Z,12.0
2018-08-22T20:29:30.000Z,13.3
2018-08-22T20:30:30.000Z,13.2
2018-08-22T20:31:30.000Z,14.2
2018-08-22T20:32:30.000Z,13.9
2018-08-22T20:33:30.000Z,14.3
2018-08-22T20:34:30.000Z,14.5
2018-08-22T20:35:32.000Z,15.5
2018-08-22T20:36:30.000Z,15.8
2018-08-22T20:37:30.000Z,16.5
2018-08-22T20:38:30.000Z,15.9
2018-08-22T20:39:30.000Z,17.2
2018-08-22T20:40:30.000Z,16.3
2018-08-22T20:41:30.000Z,18.2
2018-08-22T20:42:30.000Z,20.1
2018-08-22T20:43:31.000Z,18.3
2018-08-22T20:44:30.000Z,17.1
2018-08-22T20:45:30.000Z,18.7
2018-08-22T20:46:31.000Z,20.1
2018-08-22T20:47:30.000Z,22.4
2018-08-22T20:48:30.000Z,24.0
2018-08-22T20:49:30.000Z,23.1
2018-08-22T20:50:30.000Z,23.9
2018-08-22T20:51:30.000Z,24.5
2018-08-22T20:52:30.000Z,24.3
2018-08-22T20:53:31.000Z,23.4
2018-08-22T20:54:30.000Z,25.4
2018-08-22T20:55:30.000Z,25.4
2018-08-22T20:56:30.000Z,26.6
2018-08-22T20:57:30.000Z,26.4
2018-08-22T20:58:30.000Z,26.9
2018-08-22T20:59:30.000Z,26.2
2018-08-22T21:00:31.000Z,25.7
2018-08-22T21:01:30.000Z,25.8
2018-08-22T21:02:30.000Z,26.6
2018-08-22T21:03:30.000Z,27.5
2018-08-22T21:04:30.000Z,26.3
2018-08-22T21:05:30.000Z,27.7
2018-08-22T21:06:30.000Z,27.5
2018-08-22T21:07:29.000Z,24.2
2018-08-22T21:08:30.000Z,27.7
2018-08-22T21:09:31.000Z,27.7
2018-08-22T21:10:30.000Z,28.1
2018-08-22T21:11:31.000Z,26.3
2018-08-22T21:12:31.000Z,24.8
2018-08-22T21:13:30.000Z,26.0
2018-08-22T21:14:30.000Z,26.2
2018-08-22T21:15:30.000Z,23.7
2018-08-22T21:16:30.000Z,26.3
2018-08-22T21:17:29.000Z,25.6
2018-08-22T21:18:30.000Z,25.1
2018-08-22T21:19:30.000Z,25.0
2018-08-22T21:20:30.000Z,23.7
2018-08-22T21:21:30.000Z,26.4
2018-08-22T21:22:30.000Z,25.4
2018-08-22T21:23:30.000Z,25.3
2018-08-22T21:24:30.000Z,24.9
2018-08-22T21:25:30.000Z,26.8
2018-08-22T21:26:30.000Z,27.6
2018-08-22T21:27:30.000Z,25.4
2018-08-22T21:28:30.000Z,25.8
